createdAt,value
2018-12-21T00:00:31.080Z,95.80
2018-12-21T00:01:36.587Z,95.80
2018-12-21T00:02:40.352Z,95.80
2018-12-21T00:03:44.105Z,95.80
2018-12-21T00:04:47.746Z,95.80
2018-12-21T00:05:51.429Z,95.80
2018-12-21T00:06:55.162Z,95.80
2018-12-21T00:07:58.953Z,95.80
2018-12-21T00:09:03.244Z,95.70
2018-12-21T00:10:07.016Z,95.80
2018-12-21T00:11:10.897Z,95.70
2018-12-21T00:12:14.537Z,95.70
2018-12-21T00:13:18.115Z,95.70
2018-12-21T00:14:21.793Z,95.70
2018-12-21T00:15:25.404Z,95.70
2018-12-21T00:16:29.010Z,95.60
2018-12-21T00:17:34.714Z,95.60
2018-12-21T00:18:38.181Z,95.60
2018-12-21T00:19:41.796Z,95.60
2018-12-21T00:20:45.477Z,95.60
2018-12-21T00:21:49.172Z,95.60
2018-12-21T00:22:52.849Z,95.60
2018-12-21T00:23:56.489Z,95.60
2018-12-21T00:25:00.124Z,95.60
2018-12-21T00:26:03.979Z,95.50
2018-12-21T00:27:07.538Z,95.50
2018-12-21T00:28:11.143Z,95.50
2018-12-21T00:29:14.746Z,95.50
2018-12-21T00:30:25.881Z,95.50
2018-12-21T00:31:34.921Z,95.50
2018-12-21T00:32:44.360Z,95.50
2018-12-21T00:33:53.557Z,95.50
2018-12-21T00:35:03.024Z,95.50
2018-12-21T00:36:12.242Z,95.50
2018-12-21T00:37:21.544Z,95.50
2018-12-21T00:38:30.409Z,95.40
2018-12-21T00:39:39.601Z,95.40
2018-12-21T00:40:48.706Z,95.40
2018-12-21T00:41:51.937Z,95.30
2018-12-21T00:43:05.081Z,95.30
2018-12-21T00:44:13.160Z,95.30
2018-12-21T00:45:21.089Z,95.20
2018-12-21T00:46:32.059Z,95.20
2018-12-21T00:47:35.913Z,95.20
2018-12-21T00:48:39.528Z,95.20
2018-12-21T00:49:43.202Z,95.30
2018-12-21T00:50:46.812Z,95.30
2018-12-21T00:51:50.417Z,95.20
2018-12-21T00:52:54.961Z,95.20
2018-12-21T00:53:58.572Z,95.10
2018-12-21T00:55:02.317Z,95.20
2018-12-21T00:56:06.000Z,95.20
2018-12-21T00:57:09.912Z,95.20
2018-12-21T00:58:13.589Z,95.10
2018-12-21T00:59:17.184Z,95.10
2018-12-21T01:00:24.577Z,95.10
2018-12-21T01:01:29.398Z,95.10
2018-12-21T01:02:33.186Z,95.20
2018-12-21T01:03:36.744Z,95.20
2018-12-21T01:04:40.500Z,95.20
2018-12-21T01:05:44.334Z,95.20
2018-12-21T01:06:48.025Z,95.20
2018-12-21T01:07:51.751Z,95.20
2018-12-21T01:08:55.621Z,95.20
2018-12-21T01:09:59.312Z,95.20
2018-12-21T01:11:03.069Z,95.10
2018-12-21T01:12:08.824Z,95.10
2018-12-21T01:13:12.569Z,95.10
2018-12-21T01:14:16.263Z,95.00
2018-12-21T01:15:20.089Z,95.00
2018-12-21T01:16:23.706Z,95.00
2018-12-21T01:17:27.377Z,95.00
2018-12-21T01:18:30.981Z,95.00
2018-12-21T01:19:34.727Z,94.90
2018-12-21T01:20:38.357Z,94.70
2018-12-21T01:21:42.021Z,94.90
2018-12-21T01:22:45.629Z,94.90
2018-12-21T01:23:49.237Z,94.80
2018-12-21T01:24:52.965Z,94.80
2018-12-21T01:25:56.577Z,94.80
2018-12-21T01:27:00.180Z,94.70
2018-12-21T01:28:03.877Z,94.70
2018-12-21T01:29:07.468Z,94.70
2018-12-21T01:30:11.244Z,94.60
2018-12-21T01:31:14.889Z,94.60
2018-12-21T01:32:18.568Z,94.60
2018-12-21T01:33:22.300Z,94.60
2018-12-21T01:34:26.425Z,94.90
2018-12-21T01:35:30.080Z,94.70
2018-12-21T01:36:33.693Z,94.70
2018-12-21T01:37:37.306Z,94.70
2018-12-21T01:38:40.901Z,94.70
2018-12-21T01:39:44.573Z,94.60
2018-12-21T01:40:48.249Z,94.70
2018-12-21T01:41:51.958Z,94.70
2018-12-21T01:42:55.641Z,94.70
2018-12-21T01:43:59.313Z,94.70
2018-12-21T01:45:02.983Z,94.80
2018-12-21T01:46:06.742Z,94.80
2018-12-21T01:47:10.382Z,94.90
2018-12-21T01:48:14.064Z,94.90
2018-12-21T01:49:17.739Z,94.90
2018-12-21T01:50:21.415Z,94.90
2018-12-21T01:51:25.105Z,94.90
2018-12-21T01:52:28.760Z,94.90
2018-12-21T01:53:32.378Z,94.80
2018-12-21T01:54:36.056Z,94.80
2018-12-21T01:55:39.796Z,94.70
2018-12-21T01:56:43.421Z,94.70
2018-12-21T01:57:47.161Z,94.70
2018-12-21T01:58:50.846Z,94.70
2018-12-21T01:59:54.542Z,94.70
2018-12-21T02:00:58.337Z,94.70
2018-12-21T02:02:02.027Z,94.80
2018-12-21T02:03:05.737Z,94.80
2018-12-21T02:04:09.336Z,94.80
2018-12-21T02:05:13.105Z,94.80
2018-12-21T02:06:16.809Z,94.80
2018-12-21T02:07:20.467Z,94.80
2018-12-21T02:08:24.277Z,94.80
2018-12-21T02:09:28.065Z,94.60
2018-12-21T02:10:31.661Z,94.70
2018-12-21T02:11:35.345Z,94.60
2018-12-21T02:12:39.021Z,94.60
2018-12-21T02:13:42.721Z,94.60
2018-12-21T02:14:46.341Z,94.60
2018-12-21T02:15:50.136Z,94.70
2018-12-21T02:16:53.712Z,94.60
2018-12-21T02:17:57.329Z,94.60
2018-12-21T02:19:01.010Z,94.70
2018-12-21T02:20:05.210Z,94.70
2018-12-21T02:21:08.957Z,94.80
2018-12-21T02:22:12.574Z,94.80
2018-12-21T02:23:16.189Z,94.80
2018-12-21T02:24:19.794Z,94.80
2018-12-21T02:25:23.460Z,94.90
2018-12-21T02:26:27.196Z,94.90
2018-12-21T02:27:30.797Z,95.00
2018-12-21T02:28:34.481Z,95.00
2018-12-21T02:29:38.080Z,95.00
2018-12-21T02:30:41.686Z,95.00
2018-12-21T02:31:45.610Z,95.00
2018-12-21T02:32:49.282Z,95.10
2018-12-21T02:33:52.913Z,95.10
2018-12-21T02:34:56.503Z,95.10
2018-12-21T02:36:00.123Z,95.00
2018-12-21T02:37:03.930Z,95.00
2018-12-21T02:38:07.603Z,95.10
2018-12-21T02:39:11.221Z,95.00
2018-12-21T02:40:14.833Z,95.00
2018-12-21T02:41:18.436Z,95.00
2018-12-21T02:42:22.226Z,94.90
2018-12-21T02:43:25.849Z,94.90
2018-12-21T02:44:29.457Z,94.90
2018-12-21T02:45:33.201Z,94.90
2018-12-21T02:46:36.921Z,94.90
2018-12-21T02:47:40.612Z,95.00
2018-12-21T02:48:44.304Z,95.00
2018-12-21T02:49:47.873Z,95.00
2018-12-21T02:50:51.472Z,94.90
2018-12-21T02:51:55.225Z,94.90
2018-12-21T02:52:58.969Z,94.90
2018-12-21T02:54:02.653Z,94.80
2018-12-21T02:55:06.567Z,94.70
2018-12-21T02:56:10.210Z,94.70
2018-12-21T02:57:13.825Z,94.70
2018-12-21T02:58:17.549Z,94.80
2018-12-21T02:59:21.149Z,94.80
2018-12-21T03:00:24.891Z,94.80
2018-12-21T03:01:28.692Z,94.70
2018-12-21T03:02:32.439Z,94.70
2018-12-21T03:03:36.054Z,94.70
2018-12-21T03:04:39.802Z,94.80
2018-12-21T03:05:43.535Z,94.90
2018-12-21T03:06:47.268Z,94.90
2018-12-21T03:07:50.889Z,95.00
2018-12-21T03:08:54.642Z,95.00
2018-12-21T03:09:58.322Z,94.90
2018-12-21T03:11:01.921Z,94.90
2018-12-21T03:12:05.614Z,95.20
2018-12-21T03:13:09.222Z,95.00
2018-12-21T03:14:12.907Z,95.00
2018-12-21T03:15:16.600Z,95.00
2018-12-21T03:16:20.293Z,94.90
2018-12-21T03:17:23.985Z,94.80
2018-12-21T03:18:27.808Z,94.80
2018-12-21T03:19:31.474Z,94.80
2018-12-21T03:20:35.153Z,94.80
2018-12-21T03:21:38.924Z,94.80
2018-12-21T03:22:42.668Z,94.80
2018-12-21T03:23:46.275Z,94.80
2018-12-21T03:24:49.944Z,94.80
2018-12-21T03:25:53.740Z,94.80
2018-12-21T03:26:57.430Z,94.80
2018-12-21T03:28:01.142Z,94.80
2018-12-21T03:29:04.834Z,94.80
2018-12-21T03:30:09.325Z,94.80
2018-12-21T03:31:12.977Z,94.80
2018-12-21T03:32:16.738Z,94.80
2018-12-21T03:33:20.335Z,94.80
2018-12-21T03:34:24.095Z,94.80
2018-12-21T03:35:27.907Z,94.90
2018-12-21T03:36:31.608Z,94.90
2018-12-21T03:37:35.433Z,94.80
2018-12-21T03:38:39.093Z,94.80
2018-12-21T03:39:42.892Z,94.70
2018-12-21T03:40:46.601Z,94.70
2018-12-21T03:41:50.267Z,94.60
2018-12-21T03:42:53.957Z,94.60
2018-12-21T03:43:57.564Z,94.60
2018-12-21T03:45:01.317Z,94.50
2018-12-21T03:46:05.062Z,94.40
2018-12-21T03:47:08.733Z,94.40
2018-12-21T03:48:12.410Z,94.40
2018-12-21T03:49:16.041Z,94.30
2018-12-21T03:50:19.722Z,94.30
2018-12-21T03:51:23.331Z,94.30
2018-12-21T03:52:27.006Z,94.30
2018-12-21T03:53:30.621Z,94.30
2018-12-21T03:54:34.301Z,94.30
2018-12-21T03:55:37.982Z,94.30
2018-12-21T03:56:41.584Z,94.30
2018-12-21T03:57:45.261Z,94.40
2018-12-21T03:58:48.934Z,94.40
2018-12-21T03:59:52.605Z,94.80
2018-12-21T04:00:56.341Z,94.50
2018-12-21T04:01:59.970Z,94.50
2018-12-21T04:03:03.727Z,94.60
2018-12-21T04:04:07.452Z,94.50
2018-12-21T04:05:11.146Z,94.50
2018-12-21T04:06:14.899Z,94.90
2018-12-21T04:07:18.588Z,94.50
2018-12-21T04:08:22.285Z,94.50
2018-12-21T04:09:25.930Z,94.50
2018-12-21T04:10:29.569Z,94.50
2018-12-21T04:11:33.269Z,94.60
2018-12-21T04:12:36.941Z,94.50
2018-12-21T04:13:40.616Z,94.50
2018-12-21T04:14:44.309Z,94.40
2018-12-21T04:15:47.993Z,94.40
2018-12-21T04:16:51.606Z,94.40
2018-12-21T04:17:55.209Z,94.30
2018-12-21T04:18:58.909Z,94.40
2018-12-21T04:20:02.686Z,94.40
2018-12-21T04:21:06.289Z,94.40
2018-12-21T04:22:09.996Z,94.30
2018-12-21T04:23:13.653Z,94.30
2018-12-21T04:24:17.724Z,94.40
2018-12-21T04:25:21.476Z,94.40
2018-12-21T04:26:25.266Z,94.40
2018-12-21T04:27:28.852Z,94.30
2018-12-21T04:28:32.513Z,94.30
2018-12-21T04:29:36.141Z,94.30
2018-12-21T04:30:39.936Z,94.20
2018-12-21T04:31:43.578Z,94.20
2018-12-21T04:32:47.198Z,94.20
2018-12-21T04:33:50.872Z,94.30
2018-12-21T04:34:54.746Z,94.40
2018-12-21T04:35:58.353Z,94.40
2018-12-21T04:37:02.098Z,94.40
2018-12-21T04:38:05.810Z,94.50
2018-12-21T04:39:09.449Z,94.50
2018-12-21T04:40:13.065Z,94.50
2018-12-21T04:41:16.746Z,94.60
2018-12-21T04:42:20.423Z,94.60
2018-12-21T04:43:24.054Z,94.60
2018-12-21T04:44:27.661Z,94.60
2018-12-21T04:45:31.633Z,94.70
2018-12-21T04:46:35.428Z,94.70
2018-12-21T04:47:39.037Z,94.60
2018-12-21T04:48:42.667Z,94.70
2018-12-21T04:49:46.302Z,94.60
2018-12-21T04:50:49.907Z,94.70
2018-12-21T04:51:53.687Z,94.70
2018-12-21T04:52:57.242Z,94.70
2018-12-21T04:54:00.853Z,94.80
2018-12-21T04:55:05.138Z,94.70
2018-12-21T04:56:08.750Z,94.60
2018-12-21T04:57:12.429Z,94.60
2018-12-21T04:58:16.045Z,94.60
2018-12-21T04:59:19.677Z,94.50
2018-12-21T05:00:23.449Z,94.50
2018-12-21T05:01:27.143Z,94.40
2018-12-21T05:02:30.792Z,94.40
2018-12-21T05:03:34.470Z,94.40
2018-12-21T05:04:38.153Z,94.40
2018-12-21T05:05:41.850Z,94.50
2018-12-21T05:06:45.719Z,94.40
2018-12-21T05:07:49.654Z,94.40
2018-12-21T05:08:53.284Z,94.40
2018-12-21T05:09:56.924Z,94.40
2018-12-21T05:11:00.576Z,94.40
2018-12-21T05:12:04.297Z,94.40
2018-12-21T05:13:08.259Z,94.30
2018-12-21T05:14:11.897Z,94.30
2018-12-21T05:15:15.649Z,94.20
2018-12-21T05:16:19.258Z,94.10
2018-12-21T05:17:22.943Z,94.10
2018-12-21T05:18:26.703Z,94.40
2018-12-21T05:19:30.500Z,94.20
2018-12-21T05:20:34.256Z,94.20
2018-12-21T05:21:37.916Z,94.20
2018-12-21T05:22:41.529Z,94.20
2018-12-21T05:23:45.149Z,94.20
2018-12-21T05:24:48.778Z,94.20
2018-12-21T05:25:52.675Z,94.10
2018-12-21T05:26:56.471Z,94.10
2018-12-21T05:28:00.113Z,94.20
2018-12-21T05:29:03.859Z,94.10
2018-12-21T05:30:09.032Z,94.10
2018-12-21T05:31:12.706Z,94.10
2018-12-21T05:32:16.316Z,94.20
2018-12-21T05:33:20.004Z,94.20
2018-12-21T05:34:23.651Z,94.20
2018-12-21T05:35:27.209Z,94.50
2018-12-21T05:36:30.883Z,94.20
2018-12-21T05:37:34.488Z,94.20
2018-12-21T05:38:38.092Z,94.30
2018-12-21T05:39:41.688Z,94.30
2018-12-21T05:40:45.365Z,94.30
2018-12-21T05:41:49.037Z,94.20
2018-12-21T05:42:52.680Z,94.20
2018-12-21T05:43:56.373Z,94.20
2018-12-21T05:45:00.351Z,94.20
2018-12-21T05:46:04.016Z,94.20
2018-12-21T05:47:07.656Z,94.20
2018-12-21T05:48:11.273Z,94.70
2018-12-21T05:49:14.919Z,94.30
2018-12-21T05:50:18.777Z,94.40
2018-12-21T05:51:22.376Z,94.40
2018-12-21T05:52:26.061Z,94.50
2018-12-21T05:53:29.737Z,94.50
2018-12-21T05:54:33.404Z,94.80
2018-12-21T05:55:36.992Z,94.50
2018-12-21T05:56:40.642Z,94.50
2018-12-21T05:57:44.381Z,94.50
2018-12-21T05:58:48.013Z,94.50
2018-12-21T05:59:51.736Z,94.50
2018-12-21T06:00:55.432Z,94.60
2018-12-21T06:01:59.041Z,94.70
2018-12-21T06:03:02.725Z,94.70
2018-12-21T06:04:06.406Z,94.70
2018-12-21T06:05:10.172Z,94.70
2018-12-21T06:06:13.818Z,94.70
2018-12-21T06:07:17.512Z,94.70
2018-12-21T06:08:21.094Z,94.70
2018-12-21T06:09:24.765Z,94.80
2018-12-21T06:10:28.518Z,94.70
2018-12-21T06:11:32.120Z,94.70
2018-12-21T06:12:35.737Z,94.70
2018-12-21T06:13:39.353Z,94.70
2018-12-21T06:14:42.956Z,94.70
2018-12-21T06:15:46.578Z,94.60
2018-12-21T06:16:50.189Z,94.60
2018-12-21T06:17:53.825Z,94.50
2018-12-21T06:18:57.400Z,94.60
2018-12-21T06:20:01.056Z,94.60
2018-12-21T06:21:04.667Z,94.60
2018-12-21T06:22:08.408Z,94.50
2018-12-21T06:23:12.061Z,94.50
2018-12-21T06:24:15.669Z,94.60
2018-12-21T06:25:19.360Z,94.60
2018-12-21T06:26:23.145Z,94.60
2018-12-21T06:27:26.821Z,94.60
2018-12-21T06:28:30.549Z,94.50
2018-12-21T06:29:34.240Z,94.50
2018-12-21T06:30:37.931Z,94.50
2018-12-21T06:31:41.729Z,94.50
2018-12-21T06:32:45.357Z,94.50
2018-12-21T06:33:48.961Z,94.60
2018-12-21T06:34:52.556Z,94.60
2018-12-21T06:35:56.237Z,94.60
2018-12-21T06:36:59.861Z,94.60
2018-12-21T06:38:03.557Z,94.70
2018-12-21T06:39:07.862Z,94.50
2018-12-21T06:40:11.601Z,94.50
2018-12-21T06:41:15.197Z,94.50
2018-12-21T06:42:18.945Z,94.50
2018-12-21T06:43:22.551Z,94.40
2018-12-21T06:44:26.161Z,94.50
2018-12-21T06:45:30.364Z,94.50
2018-12-21T06:46:34.143Z,94.50
2018-12-21T06:47:37.858Z,94.50
2018-12-21T06:48:41.464Z,94.50
2018-12-21T06:49:45.226Z,94.40
2018-12-21T06:50:48.914Z,94.40
2018-12-21T06:51:52.706Z,94.40
2018-12-21T06:52:56.388Z,94.40
2018-12-21T06:54:00.078Z,94.60
2018-12-21T06:55:03.993Z,94.40
2018-12-21T06:56:08.036Z,94.40
2018-12-21T06:57:11.787Z,94.30
2018-12-21T06:58:15.377Z,94.30
2018-12-21T06:59:19.034Z,94.20
2018-12-21T07:00:22.725Z,94.20
2018-12-21T07:01:26.328Z,94.20
2018-12-21T07:02:29.942Z,94.60
2018-12-21T07:03:33.533Z,94.20
2018-12-21T07:04:37.144Z,94.20
2018-12-21T07:05:40.823Z,94.20
2018-12-21T07:06:44.441Z,94.20
2018-12-21T07:07:48.121Z,94.20
2018-12-21T07:08:51.724Z,94.30
2018-12-21T07:09:55.383Z,94.10
2018-12-21T07:10:58.960Z,94.10
2018-12-21T07:12:02.771Z,94.10
2018-12-21T07:13:06.497Z,94.10
2018-12-21T07:14:10.169Z,94.20
2018-12-21T07:15:13.949Z,94.20
2018-12-21T07:16:17.613Z,94.10
2018-12-21T07:17:21.220Z,94.10
2018-12-21T07:18:24.894Z,94.20
2018-12-21T07:19:28.590Z,94.20
2018-12-21T07:20:32.216Z,94.10
2018-12-21T07:21:35.958Z,94.20
2018-12-21T07:22:39.564Z,94.20
2018-12-21T07:23:43.161Z,94.30
2018-12-21T07:24:46.877Z,94.30
2018-12-21T07:25:50.570Z,94.20
2018-12-21T07:26:54.133Z,94.30
2018-12-21T07:27:57.737Z,94.20
2018-12-21T07:29:01.345Z,94.20
2018-12-21T07:30:07.353Z,94.20
2018-12-21T07:31:10.957Z,94.30
2018-12-21T07:32:14.637Z,94.40
2018-12-21T07:33:18.241Z,94.40
2018-12-21T07:34:21.838Z,94.40
2018-12-21T07:35:25.589Z,94.40
2018-12-21T07:36:29.190Z,94.30
2018-12-21T07:37:32.856Z,94.30
2018-12-21T07:38:36.520Z,94.40
2018-12-21T07:39:40.074Z,94.20
2018-12-21T07:40:43.902Z,94.30
2018-12-21T07:41:47.645Z,94.30
2018-12-21T07:42:51.328Z,94.30
2018-12-21T07:43:54.925Z,94.50
2018-12-21T07:44:58.537Z,94.40
2018-12-21T07:46:02.257Z,94.10
2018-12-21T07:47:06.007Z,94.50
2018-12-21T07:48:09.625Z,94.50
2018-12-21T07:49:13.422Z,94.40
2018-12-21T07:50:17.097Z,94.40
2018-12-21T07:51:21.180Z,94.40
2018-12-21T07:52:24.917Z,94.30
2018-12-21T07:53:35.821Z,94.20
2018-12-21T07:54:34.156Z,94.30
2018-12-21T07:55:37.857Z,94.30
2018-12-21T07:56:41.543Z,94.40
2018-12-21T07:57:45.243Z,94.40
2018-12-21T07:58:56.914Z,94.40
2018-12-21T07:59:54.613Z,94.40
2018-12-21T08:00:58.265Z,94.40
2018-12-21T08:02:01.860Z,94.40
2018-12-21T08:03:05.457Z,94.30
2018-12-21T08:04:09.133Z,94.30
2018-12-21T08:05:12.810Z,94.20
2018-12-21T08:06:16.569Z,94.20
2018-12-21T08:07:20.193Z,94.10
2018-12-21T08:08:23.796Z,94.10
2018-12-21T08:09:27.411Z,94.20
2018-12-21T08:10:31.010Z,94.30
2018-12-21T08:11:34.639Z,94.20
2018-12-21T08:12:38.383Z,94.10
2018-12-21T08:13:42.068Z,94.10
2018-12-21T08:14:45.762Z,94.10
2018-12-21T08:15:49.427Z,94.50
2018-12-21T08:16:53.045Z,94.10
2018-12-21T08:17:56.705Z,94.20
2018-12-21T08:19:00.317Z,94.10
2018-12-21T08:20:04.327Z,94.00
2018-12-21T08:21:08.025Z,94.10
2018-12-21T08:22:11.701Z,94.00
2018-12-21T08:23:15.472Z,93.90
2018-12-21T08:24:19.153Z,93.90
2018-12-21T08:25:22.802Z,93.80
2018-12-21T08:26:26.482Z,93.80
2018-12-21T08:27:30.148Z,93.90
2018-12-21T08:28:34.422Z,93.90
2018-12-21T08:29:38.141Z,93.80
2018-12-21T08:30:41.777Z,93.90
2018-12-21T08:31:45.604Z,93.90
2018-12-21T08:32:49.355Z,93.80
2018-12-21T08:33:52.937Z,93.50
2018-12-21T08:34:56.610Z,93.80
2018-12-21T08:36:00.368Z,93.70
2018-12-21T08:37:04.113Z,93.80
2018-12-21T08:38:07.730Z,93.80
2018-12-21T08:39:11.405Z,93.90
2018-12-21T08:40:15.231Z,93.80
2018-12-21T08:41:18.886Z,93.70
2018-12-21T08:42:28.843Z,93.70
2018-12-21T08:43:32.818Z,93.70
2018-12-21T08:44:36.433Z,93.60
2018-12-21T08:45:40.041Z,93.60
2018-12-21T08:46:43.721Z,93.50
2018-12-21T08:47:47.501Z,93.40
2018-12-21T08:48:52.845Z,93.40
2018-12-21T08:49:56.682Z,93.50
2018-12-21T08:51:00.339Z,93.40
2018-12-21T08:52:04.038Z,93.40
2018-12-21T08:53:07.815Z,93.40
2018-12-21T08:54:11.608Z,93.30
2018-12-21T08:55:15.289Z,93.30
2018-12-21T08:56:18.892Z,93.30
2018-12-21T08:57:22.577Z,93.30
2018-12-21T08:58:26.276Z,93.30
2018-12-21T08:59:29.946Z,93.20
2018-12-21T09:00:33.665Z,93.10
2018-12-21T09:01:37.255Z,93.10
2018-12-21T09:02:40.941Z,93.10
2018-12-21T09:03:44.725Z,93.10
2018-12-21T09:04:48.392Z,93.10
2018-12-21T09:05:52.126Z,93.20
2018-12-21T09:06:55.965Z,93.20
2018-12-21T09:07:59.614Z,93.10
2018-12-21T09:09:04.398Z,93.40
2018-12-21T09:10:09.962Z,93.10
2018-12-21T09:11:13.715Z,93.10
2018-12-21T09:12:17.369Z,93.00
2018-12-21T09:13:21.017Z,93.20
2018-12-21T09:14:24.703Z,93.00
2018-12-21T09:15:28.447Z,93.00
2018-12-21T09:16:32.206Z,92.90
2018-12-21T09:17:35.898Z,92.70
2018-12-21T09:18:39.609Z,92.70
2018-12-21T09:19:43.301Z,92.80
2018-12-21T09:20:46.981Z,92.80
2018-12-21T09:21:50.691Z,92.70
2018-12-21T09:22:54.329Z,92.70
2018-12-21T09:24:01.172Z,92.70
2018-12-21T09:25:03.984Z,92.80
2018-12-21T09:26:07.613Z,92.80
2018-12-21T09:27:11.204Z,92.90
2018-12-21T09:28:14.887Z,93.10
2018-12-21T09:29:18.558Z,93.00
2018-12-21T09:30:22.174Z,93.20
2018-12-21T09:31:25.777Z,93.40
2018-12-21T09:32:29.372Z,93.40
2018-12-21T09:33:33.003Z,93.70
2018-12-21T09:34:36.641Z,93.90
2018-12-21T09:35:40.335Z,93.80
2018-12-21T09:36:43.899Z,93.70
2018-12-21T09:37:47.573Z,93.90
2018-12-21T09:38:51.201Z,94.00
2018-12-21T09:39:54.882Z,94.10
2018-12-21T09:40:58.556Z,94.40
2018-12-21T09:42:02.169Z,94.20
2018-12-21T09:43:05.953Z,94.10
2018-12-21T09:44:09.637Z,94.30
2018-12-21T09:45:14.321Z,94.30
2018-12-21T09:46:17.964Z,93.90
2018-12-21T09:47:21.604Z,93.90
2018-12-21T09:48:25.270Z,93.90
2018-12-21T09:49:28.885Z,93.80
2018-12-21T09:50:32.739Z,93.80
2018-12-21T09:51:36.416Z,93.70
2018-12-21T09:52:40.030Z,93.90
2018-12-21T09:53:44.145Z,93.50
2018-12-21T09:54:47.765Z,93.40
2018-12-21T09:55:51.381Z,93.20
2018-12-21T09:56:54.972Z,93.20
2018-12-21T09:57:58.666Z,93.20
2018-12-21T09:59:02.393Z,93.30
2018-12-21T10:00:09.206Z,93.30
2018-12-21T10:01:12.801Z,93.20
2018-12-21T10:02:16.487Z,93.30
2018-12-21T10:03:20.157Z,92.90
2018-12-21T10:04:24.020Z,92.50
2018-12-21T10:05:27.921Z,92.50
2018-12-21T10:06:31.532Z,92.80
2018-12-21T10:07:35.184Z,92.80
2018-12-21T10:08:38.853Z,92.90
2018-12-21T10:09:42.540Z,93.00
2018-12-21T10:10:46.495Z,92.90
2018-12-21T10:11:50.073Z,92.80
2018-12-21T10:12:53.751Z,93.10
2018-12-21T10:13:57.997Z,93.00
2018-12-21T10:15:01.602Z,93.00
2018-12-21T10:16:05.925Z,93.10
2018-12-21T10:17:09.584Z,93.10
2018-12-21T10:18:13.334Z,93.30
2018-12-21T10:19:17.033Z,93.40
2018-12-21T10:20:20.651Z,93.20
2018-12-21T10:21:24.268Z,93.20
2018-12-21T10:22:27.873Z,93.20
2018-12-21T10:23:31.470Z,93.30
2018-12-21T10:24:35.217Z,93.20
2018-12-21T10:25:38.808Z,93.20
2018-12-21T10:26:42.410Z,93.20
2018-12-21T10:27:46.073Z,93.30
2018-12-21T10:28:49.681Z,93.50
2018-12-21T10:29:53.375Z,93.60
2018-12-21T10:30:57.000Z,93.50
2018-12-21T10:32:01.484Z,93.30
2018-12-21T10:33:05.462Z,93.30
2018-12-21T10:34:09.181Z,93.30
2018-12-21T10:35:12.864Z,93.30
2018-12-21T10:36:16.430Z,93.40
2018-12-21T10:37:20.033Z,93.60
2018-12-21T10:38:23.645Z,93.70
2018-12-21T10:39:27.314Z,93.60
2018-12-21T10:40:31.069Z,93.70
2018-12-21T10:41:34.774Z,93.80
2018-12-21T10:42:38.462Z,93.90
2018-12-21T10:43:42.141Z,94.00
2018-12-21T10:44:45.765Z,94.00
2018-12-21T10:45:49.445Z,94.40
2018-12-21T10:46:53.062Z,94.10
2018-12-21T10:47:56.802Z,94.10
2018-12-21T10:49:00.478Z,94.20
2018-12-21T10:50:05.228Z,94.20
2018-12-21T10:51:08.990Z,94.30
2018-12-21T10:52:12.766Z,94.20
2018-12-21T10:53:16.348Z,94.30
2018-12-21T10:54:26.806Z,94.40
2018-12-21T10:55:25.777Z,94.40
2018-12-21T10:56:29.512Z,94.40
2018-12-21T10:57:33.113Z,94.40
2018-12-21T10:58:36.738Z,94.60
2018-12-21T10:59:43.533Z,94.70
2018-12-21T11:00:46.077Z,94.90
2018-12-21T11:01:49.754Z,95.00
2018-12-21T11:02:53.430Z,95.10
2018-12-21T11:03:57.130Z,95.20
2018-12-21T11:05:00.765Z,95.20
2018-12-21T11:06:04.457Z,95.30
2018-12-21T11:07:08.180Z,95.30
2018-12-21T11:08:11.812Z,95.50
2018-12-21T11:09:15.843Z,95.60
2018-12-21T11:10:19.537Z,95.70
2018-12-21T11:11:23.228Z,95.80
2018-12-21T11:12:26.857Z,95.90
2018-12-21T11:13:30.485Z,96.00
2018-12-21T11:14:34.099Z,96.20
2018-12-21T11:15:37.704Z,96.30
2018-12-21T11:16:41.394Z,96.20
2018-12-21T11:17:44.997Z,96.40
2018-12-21T11:18:48.749Z,96.60
2018-12-21T11:19:52.364Z,96.70
2018-12-21T11:20:56.050Z,96.80
2018-12-21T11:21:59.673Z,96.80
2018-12-21T11:23:03.373Z,96.90
2018-12-21T11:24:07.054Z,97.00
2018-12-21T11:25:12.353Z,97.00
2018-12-21T11:26:15.977Z,97.00
2018-12-21T11:27:19.601Z,98.30
2018-12-21T11:28:25.539Z,98.40
2018-12-21T11:29:28.767Z,98.60
2018-12-21T11:30:32.513Z,98.70
2018-12-21T11:31:36.143Z,98.80
2018-12-21T11:32:39.879Z,98.90
2018-12-21T11:33:43.481Z,99.00
2018-12-21T11:34:47.090Z,99.10
2018-12-21T11:35:50.765Z,99.60
2018-12-21T11:36:54.449Z,99.30
2018-12-21T11:37:58.062Z,99.60
2018-12-21T11:39:01.669Z,99.40
2018-12-21T11:40:05.597Z,99.50
2018-12-21T11:41:09.304Z,99.50
2018-12-21T11:42:13.083Z,99.60
2018-12-21T11:43:16.722Z,99.60
2018-12-21T11:44:20.367Z,99.70
2018-12-21T11:45:24.164Z,99.80
2018-12-21T11:46:27.857Z,99.20
2018-12-21T11:47:31.549Z,99.30
2018-12-21T11:48:35.137Z,99.40
2018-12-21T11:49:38.789Z,99.50
2018-12-21T11:50:42.402Z,99.50
2018-12-21T11:51:46.166Z,99.60
2018-12-21T11:52:49.796Z,99.60
2018-12-21T11:53:53.401Z,99.60
2018-12-21T11:54:58.998Z,99.60
2018-12-21T11:56:02.645Z,99.70
2018-12-21T11:57:06.341Z,99.80
2018-12-21T11:58:10.031Z,99.80
2018-12-21T11:59:13.837Z,99.90
2018-12-21T12:00:17.505Z,99.90
2018-12-21T12:01:21.177Z,99.90
2018-12-21T12:02:24.807Z,99.90
2018-12-21T12:03:28.412Z,99.90
2018-12-21T12:04:32.020Z,99.90
2018-12-21T12:05:35.758Z,99.90
2018-12-21T12:06:39.349Z,99.90
2018-12-21T12:07:43.040Z,99.90
2018-12-21T12:08:46.702Z,99.90
2018-12-21T12:09:50.303Z,99.90
2018-12-21T12:10:53.905Z,99.90
2018-12-21T12:11:57.597Z,99.90
2018-12-21T12:13:01.313Z,99.90
2018-12-21T12:14:04.989Z,99.90
2018-12-21T12:15:08.765Z,99.90
2018-12-21T12:16:12.374Z,99.90
2018-12-21T12:17:16.053Z,99.90
2018-12-21T12:18:20.621Z,99.90
2018-12-21T12:19:24.512Z,99.90
2018-12-21T12:20:28.152Z,99.90
2018-12-21T12:21:31.905Z,99.90
2018-12-21T12:22:35.540Z,99.90
2018-12-21T12:23:39.154Z,99.90
2018-12-21T12:24:42.831Z,99.90
2018-12-21T12:25:46.513Z,99.90
2018-12-21T12:26:50.305Z,99.90
2018-12-21T12:27:53.999Z,99.90
2018-12-21T12:28:57.736Z,99.90
2018-12-21T12:30:01.413Z,99.90
2018-12-21T12:31:05.101Z,99.90
2018-12-21T12:32:08.795Z,99.90
2018-12-21T12:33:12.434Z,99.90
2018-12-21T12:34:16.045Z,99.90
2018-12-21T12:35:19.781Z,99.90
2018-12-21T12:36:23.452Z,99.90
2018-12-21T12:37:27.130Z,99.90
2018-12-21T12:38:31.005Z,99.90
2018-12-21T12:39:34.613Z,99.90
2018-12-21T12:40:38.293Z,99.90
2018-12-21T12:41:41.903Z,99.90
2018-12-21T12:42:45.599Z,99.90
2018-12-21T12:43:49.273Z,99.90
2018-12-21T12:44:53.017Z,99.90
2018-12-21T12:45:56.625Z,99.90
2018-12-21T12:47:00.389Z,99.90
2018-12-21T12:48:04.037Z,99.90
2018-12-21T12:49:07.714Z,99.90
2018-12-21T12:50:11.569Z,99.90
2018-12-21T12:51:15.255Z,99.90
2018-12-21T12:52:18.925Z,99.90
2018-12-21T12:53:22.677Z,99.90
2018-12-21T12:54:26.444Z,99.90
2018-12-21T12:55:30.241Z,99.90
2018-12-21T12:56:33.810Z,99.90
2018-12-21T12:57:37.486Z,99.90
2018-12-21T12:58:41.104Z,99.90
2018-12-21T12:59:44.778Z,99.90
2018-12-21T13:00:48.381Z,99.90
2018-12-21T13:01:52.064Z,99.90
2018-12-21T13:02:55.673Z,99.90
2018-12-21T13:03:59.271Z,99.90
2018-12-21T13:05:02.944Z,99.90
2018-12-21T13:06:06.552Z,99.90
2018-12-21T13:07:10.241Z,99.90
2018-12-21T13:08:13.927Z,99.90
2018-12-21T13:09:17.630Z,99.90
2018-12-21T13:10:21.193Z,99.90
2018-12-21T13:11:24.873Z,99.90
2018-12-21T13:12:28.473Z,99.90
2018-12-21T13:13:32.093Z,99.90
2018-12-21T13:14:35.762Z,99.90
2018-12-21T13:15:39.365Z,99.90
2018-12-21T13:16:43.041Z,99.90
2018-12-21T13:17:46.732Z,99.90
2018-12-21T13:18:50.360Z,99.90
2018-12-21T13:19:53.960Z,99.90
2018-12-21T13:20:57.704Z,99.90
2018-12-21T13:22:01.453Z,99.90
2018-12-21T13:23:05.175Z,99.90
2018-12-21T13:24:08.817Z,99.90
2018-12-21T13:25:12.507Z,99.90
2018-12-21T13:26:16.406Z,99.90
2018-12-21T13:27:20.099Z,99.90
2018-12-21T13:28:23.677Z,99.90
2018-12-21T13:29:27.464Z,99.90
2018-12-21T13:30:31.241Z,99.90
2018-12-21T13:31:34.923Z,99.90
2018-12-21T13:32:38.606Z,99.90
2018-12-21T13:33:42.280Z,99.90
2018-12-21T13:34:45.970Z,99.90
2018-12-21T13:35:49.723Z,99.90
2018-12-21T13:36:53.437Z,99.90
2018-12-21T13:37:57.113Z,99.90
2018-12-21T13:39:00.733Z,99.90
2018-12-21T13:40:06.357Z,99.90
2018-12-21T13:41:10.134Z,99.90
2018-12-21T13:42:13.742Z,99.90